AirNav   Bose ProFlight Series 2 Headset
 
 667 users online  

PA43 Foley Heliport
Callery, Pennsylvania, USA


FAA INFORMATION EFFECTIVE 02 JANUARY 2020

Location

FAA Identifier: PA43
Lat/Long: 40-44-10.2000N 080-02-22.5400W
40-44.170000N 080-02.375667W
40.7361667,-80.0395944
(estimated)
Elevation: 1037 ft. / 316 m (estimated)
Time zone: UTC -5 (UTC -4 during Daylight Saving Time)
Zip code: 16046

Heliport Operations

Heliport use: Private use. Permission required prior to landing
Activation date: 10/2018
Control tower: no
ARTCC: CLEVELAND CENTER
FSS: ALTOONA FLIGHT SERVICE STATION
Attendance: 
Wind indicator: yes
Segmented circle: no

Heliport Communications

WX AWOS-3PT at BTP (5 nm NE): 121.450 (724-586-6434)
WX AWOS-3PT at PJC (7 nm NW): 118.45 (724-452-5304)
WX AWOS-3PT at BVI (16 nm W): 118.35 (724-843-1024)
WX AWOS-A at 42PN (17 nm S): PHONE 412-442-2213
WX ASOS at PIT (17 nm SW): PHONE 412-472-0145

Nearby radio navigation aids

VOR radial/distance  VOR name  Freq  Var
EWCr132/9.5ELLWOOD CITY VOR/DME115.8008W
AGCr009/27.5ALLEGHENY VOR/DME110.0009W
CIPr233/36.1CLARION VOR/DME112.9006W
HLGr047/37.4WHEELING VOR/DME112.2007W

 
NDB name  Hdg/Dist  Freq  Var  ID
CASTLE144/24.227209WUCP ..- -.-. .--.

Heliport Services

Runway Information

Helipad H1

Dimensions: 40 x 40 ft. / 12 x 12 m
Surface: asphalt/concrete, in excellent condition
Runway edge lights: FLD
Latitude: 40-44.170000N
Longitude: 080-02.375667W
Elevation: 1037.0 ft.
Traffic pattern: leftleft

Heliport Ownership and Management from official FAA records

Ownership: Privately-owned
Owner: FOLEY AVIATION, LLC
218 KLINE AVE.
EVANS CITY, PA 16033
Phone 412-906-1654
Manager: MIKE FOLEY
218 KLINE AVE.
EVANS CITY, PA 16033
Phone 412-906-1654

Heliport Operational Statistics

Aircraft based on the field: 1
Helicopters: 1
    

Additional Remarks

OWNER REQ ARPT BE CHARTED.

Instrument Procedures

There are no published instrument procedures at PA43.

Some nearby airports with instrument procedures:

KBTP - Pittsburgh/Butler Regional Airport (5 nm NE)
KPJC - Zelienople Municipal Airport (7 nm NW)
KBVI - Beaver County Airport (16 nm W)
KPIT - Pittsburgh International Airport (17 nm SW)
6P7 - McVille Airport (20 nm E)
 
Loc | Ops | Rwys | IFR | FBO | Links
Com | Nav | Svcs | Stats | Notes
Aerial photo
No photo
 
Airport distance calculator
Flying to Foley Heliport? Find the distance to fly.

From to PA43

Sunrise and sunset
Times for 19-Jan-2020
 Local
(UTC-5)
 Zulu
(UTC)
Morning civil twilight07:1112:11
Sunrise07:4112:41
Sunset17:2122:21
Evening civil twilight17:5122:51

Current date and time
Zulu (UTC)  19-Jan-2020 10:47:01
Local (UTC-5)  19-Jan-2020 05:47:01
 
METAR
KBTP 
4nm NE 
190956Z AUTO 26011G17KT 9SM -SN OVC024 M03/M07 A2983 RMK AO2 PK WND 26031/0902 SLP119 P0000 T10281067 FZRANO
KPJC 
7nm NW 
191035Z AUTO 27009KT 5SM -SN OVC023 M02/M06 A2988 RMK AO2
KBVI 
16nm W 
191035Z AUTO 27013G24KT 10SM -SN OVC022 M03/M07 A2987 RMK AO2 T10301072
KPIT 
18nm SW 
190951Z 28017G23KT 9SM -SN OVC018 M02/M07 A2984 RMK AO2 SLP122 P0000 T10221067
TAF
KBVI 
16nm W 
191002Z 1910/2006 27013G25KT P6SM -SHSN OVC022 FM191300 27012G22KT P6SM OVC025 FM200200 27010G20KT 4SM -SHSN OVC015 FM200500 28008G16KT P6SM VCSH OVC020
KPIT 
18nm SW 
190856Z 1909/2012 28014G27KT P6SM -SHSN OVC018 FM191300 27012G22KT P6SM OVC022 FM200200 27010G20KT 4SM -SHSN OVC015 FM200700 28008G16KT P6SM VCSH OVC020 FM201100 29006KT P6SM BKN025
NOTAMs
Click for the latest NOTAMs
NOTAMs are issued by the DoD/FAA and will open in a separate window not controlled by AirNav.

 

 
 

Would you like to see your business listed on this page?

 If your business provides an interesting product or service to pilots, flight crews, aircraft, or users of the Foley Heliport, you should consider listing it here.  To start the listing process, click on the button below
 
Add a business
 

Other Pages about Foley Heliport

Update a link
 
Copyright © AirNav, LLC. All rights reserved. Privacy Policy  Contact